sensor_id;sensor_type;location;lat;lon;timestamp;P1;durP1;ratioP1;P2;durP2;ratioP2
9912;SDS011;41380;52.548;13.344;2022-07-23T00:01:38;8.10;;;7.25;;
9912;SDS011;41380;52.548;13.344;2022-07-23T00:04:06;8.60;;;7.70;;
9912;SDS011;41380;52.548;13.344;2022-07-23T00:06:33;6.88;;;6.32;;
9912;SDS011;41380;52.548;13.344;2022-07-23T00:08:59;8.75;;;7.40;;
9912;SDS011;41380;52.548;13.344;2022-07-23T00:11:28;7.78;;;7.07;;
9912;SDS011;41380;52.548;13.344;2022-07-23T00:13:55;7.82;;;7.15;;
9912;SDS011;41380;52.548;13.344;2022-07-23T00:16:23;7.85;;;7.15;;
9912;SDS011;41380;52.548;13.344;2022-07-23T00:18:50;10.88;;;7.55;;
9912;SDS011;41380;52.548;13.344;2022-07-23T00:21:17;7.80;;;7.00;;
9912;SDS011;41380;52.548;13.344;2022-07-23T00:23:44;7.95;;;6.85;;
9912;SDS011;41380;52.548;13.344;2022-07-23T00:26:12;7.90;;;7.10;;
9912;SDS011;41380;52.548;13.344;2022-07-23T00:28:40;8.27;;;7.43;;
9912;SDS011;41380;52.548;13.344;2022-07-23T00:31:07;8.10;;;7.22;;
9912;SDS011;41380;52.548;13.344;2022-07-23T00:33:34;7.38;;;6.78;;
9912;SDS011;41380;52.548;13.344;2022-07-23T00:36:01;8.13;;;7.32;;
9912;SDS011;41380;52.548;13.344;2022-07-23T00:38:28;8.13;;;6.90;;
9912;SDS011;41380;52.548;13.344;2022-07-23T00:40:56;8.13;;;7.40;;
9912;SDS011;41380;52.548;13.344;2022-07-23T00:43:22;10.48;;;8.38;;
9912;SDS011;41380;52.548;13.344;2022-07-23T00:45:51;9.05;;;7.57;;
9912;SDS011;41380;52.548;13.344;2022-07-23T00:48:18;9.18;;;8.02;;
9912;SDS011;41380;52.548;13.344;2022-07-23T00:50:45;9.60;;;8.18;;
9912;SDS011;41380;52.548;13.344;2022-07-23T00:53:12;7.90;;;7.13;;
9912;SDS011;41380;52.548;13.344;2022-07-23T00:55:39;10.35;;;7.13;;
9912;SDS011;41380;52.548;13.344;2022-07-23T00:58:08;8.40;;;7.40;;
9912;SDS011;41380;52.548;13.344;2022-07-23T01:00:35;8.32;;;7.53;;
9912;SDS011;41380;52.548;13.344;2022-07-23T01:03:04;7.80;;;7.00;;
9912;SDS011;41380;52.548;13.344;2022-07-23T01:05:31;8.05;;;6.75;;
9912;SDS011;41380;52.548;13.344;2022-07-23T01:07:58;7.60;;;6.90;;
9912;SDS011;41380;52.548;13.344;2022-07-23T01:10:25;7.80;;;6.97;;
9912;SDS011;41380;52.548;13.344;2022-07-23T01:12:59;7.07;;;6.45;;
9912;SDS011;41380;52.548;13.344;2022-07-23T01:15:27;7.80;;;6.88;;
9912;SDS011;41380;52.548;13.344;2022-07-23T01:17:55;8.45;;;6.60;;
9912;SDS011;41380;52.548;13.344;2022-07-23T01:20:23;10.85;;;7.32;;
9912;SDS011;41380;52.548;13.344;2022-07-23T01:22:51;8.20;;;7.50;;
9912;SDS011;41380;52.548;13.344;2022-07-23T01:25:19;8.13;;;7.32;;
9912;SDS011;41380;52.548;13.344;2022-07-23T01:27:46;7.85;;;7.15;;
9912;SDS011;41380;52.548;13.344;2022-07-23T01:30:13;7.80;;;7.20;;
9912;SDS011;41380;52.548;13.344;2022-07-23T01:32:41;8.07;;;7.28;;
9912;SDS011;41380;52.548;13.344;2022-07-23T01:35:08;7.65;;;6.97;;
9912;SDS011;41380;52.548;13.344;2022-07-23T01:37:36;7.80;;;7.05;;
9912;SDS011;41380;52.548;13.344;2022-07-23T01:40:06;8.57;;;7.85;;
9912;SDS011;41380;52.548;13.344;2022-07-23T01:42:33;8.65;;;7.57;;
9912;SDS011;41380;52.548;13.344;2022-07-23T01:45:01;8.48;;;7.68;;
9912;SDS011;41380;52.548;13.344;2022-07-23T01:47:29;8.55;;;7.70;;
9912;SDS011;41380;52.548;13.344;2022-07-23T01:49:57;8.25;;;7.53;;
9912;SDS011;41380;52.548;13.344;2022-07-23T01:52:24;8.43;;;7.53;;
9912;SDS011;41380;52.548;13.344;2022-07-23T01:54:51;8.45;;;7.65;;
9912;SDS011;41380;52.548;13.344;2022-07-23T01:57:19;8.38;;;7.57;;
9912;SDS011;41380;52.548;13.344;2022-07-23T01:59:46;8.27;;;7.47;;
9912;SDS011;41380;52.548;13.344;2022-07-23T02:02:13;8.05;;;7.25;;
9912;SDS011;41380;52.548;13.344;2022-07-23T02:04:39;8.85;;;7.95;;
9912;SDS011;41380;52.548;13.344;2022-07-23T02:07:06;12.73;;;6.88;;
9912;SDS011;41380;52.548;13.344;2022-07-23T02:09:33;8.10;;;7.18;;
9912;SDS011;41380;52.548;13.344;2022-07-23T02:12:00;7.63;;;6.93;;
9912;SDS011;41380;52.548;13.344;2022-07-23T02:14:29;8.52;;;7.63;;
9912;SDS011;41380;52.548;13.344;2022-07-23T02:16:55;9.05;;;7.90;;
9912;SDS011;41380;52.548;13.344;2022-07-23T02:19:22;8.23;;;7.07;;
9912;SDS011;41380;52.548;13.344;2022-07-23T02:21:52;8.10;;;7.30;;
9912;SDS011;41380;52.548;13.344;2022-07-23T02:24:19;8.75;;;7.70;;
9912;SDS011;41380;52.548;13.344;2022-07-23T02:26:46;9.93;;;7.80;;
9912;SDS011;41380;52.548;13.344;2022-07-23T02:29:13;11.60;;;8.40;;
9912;SDS011;41380;52.548;13.344;2022-07-23T02:31:41;14.60;;;8.55;;
9912;SDS011;41380;52.548;13.344;2022-07-23T02:34:08;14.40;;;8.48;;
9912;SDS011;41380;52.548;13.344;2022-07-23T02:36:37;14.75;;;8.07;;
9912;SDS011;41380;52.548;13.344;2022-07-23T02:39:04;10.93;;;8.65;;
9912;SDS011;41380;52.548;13.344;2022-07-23T02:41:31;9.18;;;7.53;;
9912;SDS011;41380;52.548;13.344;2022-07-23T02:44:00;10.95;;;7.50;;
9912;SDS011;41380;52.548;13.344;2022-07-23T02:46:27;11.57;;;7.65;;
9912;SDS011;41380;52.548;13.344;2022-07-23T02:48:56;8.63;;;7.72;;
9912;SDS011;41380;52.548;13.344;2022-07-23T02:51:22;11.20;;;7.78;;
9912;SDS011;41380;52.548;13.344;2022-07-23T02:53:49;8.30;;;7.60;;
9912;SDS011;41380;52.548;13.344;2022-07-23T02:56:16;11.00;;;7.65;;
9912;SDS011;41380;52.548;13.344;2022-07-23T02:58:43;9.77;;;7.30;;
9912;SDS011;41380;52.548;13.344;2022-07-23T03:01:10;8.25;;;7.00;;
9912;SDS011;41380;52.548;13.344;2022-07-23T03:03:37;8.23;;;6.95;;
9912;SDS011;41380;52.548;13.344;2022-07-23T03:06:05;7.60;;;6.35;;
9912;SDS011;41380;52.548;13.344;2022-07-23T03:08:34;7.50;;;6.50;;
9912;SDS011;41380;52.548;13.344;2022-07-23T03:11:01;7.25;;;6.20;;
9912;SDS011;41380;52.548;13.344;2022-07-23T03:13:28;7.65;;;6.60;;
9912;SDS011;41380;52.548;13.344;2022-07-23T03:15:54;7.05;;;6.05;;
9912;SDS011;41380;52.548;13.344;2022-07-23T03:18:21;7.57;;;6.20;;
9912;SDS011;41380;52.548;13.344;2022-07-23T03:20:49;7.90;;;5.65;;
9912;SDS011;41380;52.548;13.344;2022-07-23T03:23:18;9.60;;;6.20;;
9912;SDS011;41380;52.548;13.344;2022-07-23T03:25:45;7.20;;;5.10;;
9912;SDS011;41380;52.548;13.344;2022-07-23T03:28:13;7.65;;;5.47;;
9912;SDS011;41380;52.548;13.344;2022-07-23T03:30:40;9.50;;;5.15;;
9912;SDS011;41380;52.548;13.344;2022-07-23T03:33:07;7.35;;;5.57;;
9912;SDS011;41380;52.548;13.344;2022-07-23T03:35:35;6.07;;;5.45;;
9912;SDS011;41380;52.548;13.344;2022-07-23T03:38:02;7.45;;;4.78;;
9912;SDS011;41380;52.548;13.344;2022-07-23T03:40:30;8.07;;;4.30;;
9912;SDS011;41380;52.548;13.344;2022-07-23T03:42:57;9.13;;;4.13;;
9912;SDS011;41380;52.548;13.344;2022-07-23T03:45:24;8.60;;;4.20;;
9912;SDS011;41380;52.548;13.344;2022-07-23T03:47:51;4.50;;;4.05;;
9912;SDS011;41380;52.548;13.344;2022-07-23T03:50:18;6.35;;;3.80;;
9912;SDS011;41380;52.548;13.344;2022-07-23T03:52:47;6.25;;;3.72;;
9912;SDS011;41380;52.548;13.344;2022-07-23T03:55:15;4.40;;;3.10;;
9912;SDS011;41380;52.548;13.344;2022-07-23T03:57:44;6.05;;;3.88;;
9912;SDS011;41380;52.548;13.344;2022-07-23T04:00:11;7.15;;;3.40;;
9912;SDS011;41380;52.548;13.344;2022-07-23T04:02:39;5.30;;;3.30;;
9912;SDS011;41380;52.548;13.344;2022-07-23T04:05:07;7.68;;;3.97;;
9912;SDS011;41380;52.548;13.344;2022-07-23T04:07:35;7.97;;;3.45;;
9912;SDS011;41380;52.548;13.344;2022-07-23T04:10:03;6.28;;;3.15;;
9912;SDS011;41380;52.548;13.344;2022-07-23T04:12:30;5.18;;;2.95;;
9912;SDS011;41380;52.548;13.344;2022-07-23T04:14:59;4.30;;;2.80;;
9912;SDS011;41380;52.548;13.344;2022-07-23T04:17:26;7.03;;;3.42;;
9912;SDS011;41380;52.548;13.344;2022-07-23T04:19:53;4.78;;;3.15;;
9912;SDS011;41380;52.548;13.344;2022-07-23T04:22:20;5.60;;;3.58;;
9912;SDS011;41380;52.548;13.344;2022-07-23T04:24:47;4.80;;;3.50;;
9912;SDS011;41380;52.548;13.344;2022-07-23T04:27:14;6.10;;;3.60;;
9912;SDS011;41380;52.548;13.344;2022-07-23T04:29:41;4.32;;;3.30;;
9912;SDS011;41380;52.548;13.344;2022-07-23T04:32:09;4.90;;;3.63;;
9912;SDS011;41380;52.548;13.344;2022-07-23T04:34:36;4.55;;;3.88;;
9912;SDS011;41380;52.548;13.344;2022-07-23T04:37:04;13.98;;;6.25;;
9912;SDS011;41380;52.548;13.344;2022-07-23T04:39:30;11.20;;;5.13;;
9912;SDS011;41380;52.548;13.344;2022-07-23T04:41:58;8.52;;;5.05;;
9912;SDS011;41380;52.548;13.344;2022-07-23T04:44:25;12.80;;;5.57;;
9912;SDS011;41380;52.548;13.344;2022-07-23T04:46:52;8.23;;;6.82;;
9912;SDS011;41380;52.548;13.344;2022-07-23T04:49:20;8.32;;;6.22;;
9912;SDS011;41380;52.548;13.344;2022-07-23T04:51:47;9.30;;;6.03;;
9912;SDS011;41380;52.548;13.344;2022-07-23T04:54:14;9.45;;;6.05;;
9912;SDS011;41380;52.548;13.344;2022-07-23T04:56:42;10.20;;;6.55;;
9912;SDS011;41380;52.548;13.344;2022-07-23T04:59:09;15.68;;;7.90;;
9912;SDS011;41380;52.548;13.344;2022-07-23T05:01:36;9.88;;;6.30;;
9912;SDS011;41380;52.548;13.344;2022-07-23T05:04:04;11.32;;;6.43;;
9912;SDS011;41380;52.548;13.344;2022-07-23T05:06:33;12.43;;;6.70;;
9912;SDS011;41380;52.548;13.344;2022-07-23T05:09:00;13.38;;;6.25;;
9912;SDS011;41380;52.548;13.344;2022-07-23T05:11:27;16.10;;;7.03;;
9912;SDS011;41380;52.548;13.344;2022-07-23T05:13:54;8.35;;;5.75;;
9912;SDS011;41380;52.548;13.344;2022-07-23T05:16:22;13.70;;;6.85;;
9912;SDS011;41380;52.548;13.344;2022-07-23T05:18:49;8.80;;;5.37;;
9912;SDS011;41380;52.548;13.344;2022-07-23T05:21:16;8.80;;;5.63;;
9912;SDS011;41380;52.548;13.344;2022-07-23T05:23:44;8.35;;;5.78;;
9912;SDS011;41380;52.548;13.344;2022-07-23T05:26:11;9.90;;;6.55;;
9912;SDS011;41380;52.548;13.344;2022-07-23T05:28:38;9.55;;;6.22;;
9912;SDS011;41380;52.548;13.344;2022-07-23T05:31:05;9.85;;;6.90;;
9912;SDS011;41380;52.548;13.344;2022-07-23T05:33:32;12.18;;;7.03;;
9912;SDS011;41380;52.548;13.344;2022-07-23T05:36:00;9.00;;;6.88;;
9912;SDS011;41380;52.548;13.344;2022-07-23T05:38:28;14.55;;;8.07;;
9912;SDS011;41380;52.548;13.344;2022-07-23T05:40:57;12.73;;;7.65;;
9912;SDS011;41380;52.548;13.344;2022-07-23T05:43:28;13.52;;;7.43;;
9912;SDS011;41380;52.548;13.344;2022-07-23T05:45:55;11.82;;;7.38;;
9912;SDS011;41380;52.548;13.344;2022-07-23T05:48:22;11.50;;;8.57;;
9912;SDS011;41380;52.548;13.344;2022-07-23T05:50:50;12.57;;;8.40;;
9912;SDS011;41380;52.548;13.344;2022-07-23T05:53:28;10.13;;;7.45;;
9912;SDS011;41380;52.548;13.344;2022-07-23T05:55:58;11.02;;;7.38;;
9912;SDS011;41380;52.548;13.344;2022-07-23T05:58:25;11.52;;;8.48;;
9912;SDS011;41380;52.548;13.344;2022-07-23T06:00:55;14.05;;;8.30;;
9912;SDS011;41380;52.548;13.344;2022-07-23T06:03:22;12.27;;;7.18;;
9912;SDS011;41380;52.548;13.344;2022-07-23T06:05:54;9.63;;;8.63;;
9912;SDS011;41380;52.548;13.344;2022-07-23T06:08:24;14.20;;;9.20;;
9912;SDS011;41380;52.548;13.344;2022-07-23T06:10:52;13.00;;;8.02;;
9912;SDS011;41380;52.548;13.344;2022-07-23T06:13:20;9.90;;;7.75;;
9912;SDS011;41380;52.548;13.344;2022-07-23T06:15:47;10.77;;;8.25;;
9912;SDS011;41380;52.548;13.344;2022-07-23T06:18:14;15.45;;;9.38;;
9912;SDS011;41380;52.548;13.344;2022-07-23T06:20:41;16.92;;;8.90;;
9912;SDS011;41380;52.548;13.344;2022-07-23T06:23:08;11.88;;;8.57;;
9912;SDS011;41380;52.548;13.344;2022-07-23T06:25:35;16.40;;;10.07;;
9912;SDS011;41380;52.548;13.344;2022-07-23T06:28:02;11.70;;;8.63;;
9912;SDS011;41380;52.548;13.344;2022-07-23T06:30:31;11.68;;;8.63;;
9912;SDS011;41380;52.548;13.344;2022-07-23T06:32:58;16.95;;;9.25;;
9912;SDS011;41380;52.548;13.344;2022-07-23T06:35:25;11.27;;;8.57;;
9912;SDS011;41380;52.548;13.344;2022-07-23T06:37:52;14.50;;;9.90;;
9912;SDS011;41380;52.548;13.344;2022-07-23T06:40:19;10.10;;;8.77;;
9912;SDS011;41380;52.548;13.344;2022-07-23T06:42:46;9.80;;;8.70;;
9912;SDS011;41380;52.548;13.344;2022-07-23T06:45:13;14.52;;;8.85;;
9912;SDS011;41380;52.548;13.344;2022-07-23T06:47:41;12.00;;;8.95;;
9912;SDS011;41380;52.548;13.344;2022-07-23T06:50:09;13.10;;;8.60;;
9912;SDS011;41380;52.548;13.344;2022-07-23T06:52:36;11.48;;;8.35;;
9912;SDS011;41380;52.548;13.344;2022-07-23T06:55:03;9.88;;;7.82;;
9912;SDS011;41380;52.548;13.344;2022-07-23T06:57:32;10.50;;;8.13;;
9912;SDS011;41380;52.548;13.344;2022-07-23T06:59:59;13.35;;;7.88;;
9912;SDS011;41380;52.548;13.344;2022-07-23T07:02:26;14.60;;;7.93;;
9912;SDS011;41380;52.548;13.344;2022-07-23T07:04:55;12.15;;;8.07;;
9912;SDS011;41380;52.548;13.344;2022-07-23T07:07:22;9.98;;;7.68;;
9912;SDS011;41380;52.548;13.344;2022-07-23T07:09:49;13.90;;;9.15;;
9912;SDS011;41380;52.548;13.344;2022-07-23T07:12:16;10.45;;;8.10;;
9912;SDS011;41380;52.548;13.344;2022-07-23T07:14:43;11.43;;;8.82;;
9912;SDS011;41380;52.548;13.344;2022-07-23T07:17:10;13.63;;;8.98;;
9912;SDS011;41380;52.548;13.344;2022-07-23T07:19:37;13.68;;;9.13;;
9912;SDS011;41380;52.548;13.344;2022-07-23T07:22:05;11.25;;;8.98;;
9912;SDS011;41380;52.548;13.344;2022-07-23T07:24:33;11.93;;;8.10;;
9912;SDS011;41380;52.548;13.344;2022-07-23T07:27:00;10.57;;;8.07;;
9912;SDS011;41380;52.548;13.344;2022-07-23T07:29:27;12.50;;;8.90;;
9912;SDS011;41380;52.548;13.344;2022-07-23T07:31:55;10.85;;;8.60;;
9912;SDS011;41380;52.548;13.344;2022-07-23T07:34:22;11.63;;;8.07;;
9912;SDS011;41380;52.548;13.344;2022-07-23T07:36:49;10.65;;;8.77;;
9912;SDS011;41380;52.548;13.344;2022-07-23T07:39:18;10.30;;;8.20;;
9912;SDS011;41380;52.548;13.344;2022-07-23T07:41:46;10.02;;;8.18;;
9912;SDS011;41380;52.548;13.344;2022-07-23T07:44:13;9.70;;;8.00;;
9912;SDS011;41380;52.548;13.344;2022-07-23T07:46:42;9.40;;;8.05;;
9912;SDS011;41380;52.548;13.344;2022-07-23T07:49:09;12.80;;;8.60;;
9912;SDS011;41380;52.548;13.344;2022-07-23T07:51:36;9.88;;;7.70;;
9912;SDS011;41380;52.548;13.344;2022-07-23T07:54:03;11.25;;;8.43;;
9912;SDS011;41380;52.548;13.344;2022-07-23T07:56:34;9.80;;;7.35;;
9912;SDS011;41380;52.548;13.344;2022-07-23T07:59:01;10.32;;;7.63;;
9912;SDS011;41380;52.548;13.344;2022-07-23T08:01:30;13.15;;;7.72;;
9912;SDS011;41380;52.548;13.344;2022-07-23T08:03:57;10.68;;;6.80;;
9912;SDS011;41380;52.548;13.344;2022-07-23T08:06:24;7.78;;;6.80;;
9912;SDS011;41380;52.548;13.344;2022-07-23T08:08:52;7.53;;;6.70;;
9912;SDS011;41380;52.548;13.344;2022-07-23T08:11:21;11.10;;;7.47;;
9912;SDS011;41380;52.548;13.344;2022-07-23T08:13:49;10.85;;;7.40;;
9912;SDS011;41380;52.548;13.344;2022-07-23T08:16:16;9.73;;;6.82;;
9912;SDS011;41380;52.548;13.344;2022-07-23T08:18:44;7.57;;;6.65;;
9912;SDS011;41380;52.548;13.344;2022-07-23T08:21:10;6.00;;;5.40;;
9912;SDS011;41380;52.548;13.344;2022-07-23T08:23:37;6.40;;;5.70;;
9912;SDS011;41380;52.548;13.344;2022-07-23T08:26:04;8.05;;;5.53;;
9912;SDS011;41380;52.548;13.344;2022-07-23T08:28:32;7.30;;;5.70;;
9912;SDS011;41380;52.548;13.344;2022-07-23T08:31:05;9.13;;;4.05;;
9912;SDS011;41380;52.548;13.344;2022-07-23T08:33:42;5.32;;;4.03;;
9912;SDS011;41380;52.548;13.344;2022-07-23T08:36:09;5.55;;;3.78;;
9912;SDS011;41380;52.548;13.344;2022-07-23T08:38:36;7.30;;;4.32;;
9912;SDS011;41380;52.548;13.344;2022-07-23T08:41:04;6.90;;;4.70;;
9912;SDS011;41380;52.548;13.344;2022-07-23T08:43:49;9.55;;;4.95;;
9912;SDS011;41380;52.548;13.344;2022-07-23T08:46:17;6.20;;;4.55;;
9912;SDS011;41380;52.548;13.344;2022-07-23T08:48:47;7.43;;;4.50;;
9912;SDS011;41380;52.548;13.344;2022-07-23T08:51:15;5.63;;;4.40;;
9912;SDS011;41380;52.548;13.344;2022-07-23T08:53:42;5.50;;;3.75;;
9912;SDS011;41380;52.548;13.344;2022-07-23T08:56:10;4.13;;;3.50;;
9912;SDS011;41380;52.548;13.344;2022-07-23T08:58:37;6.78;;;4.00;;
9912;SDS011;41380;52.548;13.344;2022-07-23T09:01:04;6.38;;;3.90;;
9912;SDS011;41380;52.548;13.344;2022-07-23T09:03:33;6.30;;;3.70;;
9912;SDS011;41380;52.548;13.344;2022-07-23T09:06:03;4.85;;;3.75;;
9912;SDS011;41380;52.548;13.344;2022-07-23T09:08:35;7.18;;;4.13;;
9912;SDS011;41380;52.548;13.344;2022-07-23T09:11:04;6.30;;;3.95;;
9912;SDS011;41380;52.548;13.344;2022-07-23T09:13:34;8.27;;;4.82;;
9912;SDS011;41380;52.548;13.344;2022-07-23T09:16:05;4.97;;;4.10;;
9912;SDS011;41380;52.548;13.344;2022-07-23T09:18:42;4.30;;;3.75;;
9912;SDS011;41380;52.548;13.344;2022-07-23T09:21:12;8.40;;;4.30;;
9912;SDS011;41380;52.548;13.344;2022-07-23T09:23:41;4.28;;;3.88;;
9912;SDS011;41380;52.548;13.344;2022-07-23T09:26:20;7.85;;;4.90;;
9912;SDS011;41380;52.548;13.344;2022-07-23T09:28:54;7.25;;;4.97;;
9912;SDS011;41380;52.548;13.344;2022-07-23T09:31:24;7.43;;;4.10;;
9912;SDS011;41380;52.548;13.344;2022-07-23T09:34:05;5.55;;;4.30;;
9912;SDS011;41380;52.548;13.344;2022-07-23T09:36:37;5.78;;;4.00;;
9912;SDS011;41380;52.548;13.344;2022-07-23T09:39:06;7.72;;;5.05;;
9912;SDS011;41380;52.548;13.344;2022-07-23T09:41:35;6.70;;;4.50;;
9912;SDS011;41380;52.548;13.344;2022-07-23T09:44:14;4.45;;;3.97;;
9912;SDS011;41380;52.548;13.344;2022-07-23T09:46:42;7.60;;;4.15;;
9912;SDS011;41380;52.548;13.344;2022-07-23T09:49:13;6.15;;;4.03;;
9912;SDS011;41380;52.548;13.344;2022-07-23T09:51:45;4.85;;;4.18;;
9912;SDS011;41380;52.548;13.344;2022-07-23T09:54:22;5.38;;;4.10;;
9912;SDS011;41380;52.548;13.344;2022-07-23T09:56:59;5.78;;;3.95;;
9912;SDS011;41380;52.548;13.344;2022-07-23T09:59:29;6.13;;;4.13;;
9912;SDS011;41380;52.548;13.344;2022-07-23T10:01:59;6.03;;;3.92;;
9912;SDS011;41380;52.548;13.344;2022-07-23T10:04:28;5.13;;;4.25;;
9912;SDS011;41380;52.548;13.344;2022-07-23T10:06:59;5.18;;;3.47;;
9912;SDS011;41380;52.548;13.344;2022-07-23T10:09:30;4.50;;;3.92;;
9912;SDS011;41380;52.548;13.344;2022-07-23T10:11:59;4.78;;;3.78;;
9912;SDS011;41380;52.548;13.344;2022-07-23T10:14:35;4.63;;;3.15;;
9912;SDS011;41380;52.548;13.344;2022-07-23T10:17:08;5.50;;;3.63;;
9912;SDS011;41380;52.548;13.344;2022-07-23T10:19:37;4.90;;;3.47;;
9912;SDS011;41380;52.548;13.344;2022-07-23T10:22:06;4.03;;;3.55;;
9912;SDS011;41380;52.548;13.344;2022-07-23T10:24:47;4.97;;;3.80;;
9912;SDS011;41380;52.548;13.344;2022-07-23T10:30:35;4.20;;;3.60;;
9912;SDS011;41380;52.548;13.344;2022-07-23T10:33:15;5.25;;;3.53;;
9912;SDS011;41380;52.548;13.344;2022-07-23T10:35:53;3.72;;;3.25;;
9912;SDS011;41380;52.548;13.344;2022-07-23T10:38:30;3.38;;;3.03;;
9912;SDS011;41380;52.548;13.344;2022-07-23T10:41:01;4.57;;;3.45;;
9912;SDS011;41380;52.548;13.344;2022-07-23T10:43:30;5.43;;;3.38;;
9912;SDS011;41380;52.548;13.344;2022-07-23T10:54:50;4.13;;;3.17;;
9912;SDS011;41380;52.548;13.344;2022-07-23T10:57:19;3.85;;;3.45;;
9912;SDS011;41380;52.548;13.344;2022-07-23T11:02:43;5.50;;;3.25;;
9912;SDS011;41380;52.548;13.344;2022-07-23T11:05:12;4.53;;;3.30;;
9912;SDS011;41380;52.548;13.344;2022-07-23T11:10:43;6.18;;;3.20;;
9912;SDS011;41380;52.548;13.344;2022-07-23T11:13:27;6.47;;;3.95;;
9912;SDS011;41380;52.548;13.344;2022-07-23T11:16:12;4.53;;;3.10;;
9912;SDS011;41380;52.548;13.344;2022-07-23T11:19:05;4.35;;;3.28;;
9912;SDS011;41380;52.548;13.344;2022-07-23T11:21:44;4.07;;;3.13;;
9912;SDS011;41380;52.548;13.344;2022-07-23T11:24:14;4.07;;;3.00;;
9912;SDS011;41380;52.548;13.344;2022-07-23T11:26:58;5.57;;;3.67;;
9912;SDS011;41380;52.548;13.344;2022-07-23T11:29:47;5.07;;;3.50;;
9912;SDS011;41380;52.548;13.344;2022-07-23T11:32:19;5.55;;;3.65;;
9912;SDS011;41380;52.548;13.344;2022-07-23T11:35:00;3.67;;;3.17;;
9912;SDS011;41380;52.548;13.344;2022-07-23T11:37:37;3.55;;;3.13;;
9912;SDS011;41380;52.548;13.344;2022-07-23T11:40:08;5.00;;;3.20;;
9912;SDS011;41380;52.548;13.344;2022-07-23T11:42:37;4.30;;;3.20;;
9912;SDS011;41380;52.548;13.344;2022-07-23T11:45:05;5.85;;;3.50;;
9912;SDS011;41380;52.548;13.344;2022-07-23T11:47:34;6.60;;;3.30;;
9912;SDS011;41380;52.548;13.344;2022-07-23T11:50:02;4.05;;;3.00;;
9912;SDS011;41380;52.548;13.344;2022-07-23T11:52:31;4.47;;;3.10;;
9912;SDS011;41380;52.548;13.344;2022-07-23T11:54:59;3.97;;;3.20;;
9912;SDS011;41380;52.548;13.344;2022-07-23T11:57:30;5.30;;;3.15;;
9912;SDS011;41380;52.548;13.344;2022-07-23T12:00:00;4.05;;;3.10;;
9912;SDS011;41380;52.548;13.344;2022-07-23T12:02:30;4.13;;;3.15;;
9912;SDS011;41380;52.548;13.344;2022-07-23T12:04:57;4.72;;;3.33;;
9912;SDS011;41380;52.548;13.344;2022-07-23T12:07:25;4.82;;;3.22;;
9912;SDS011;41380;52.548;13.344;2022-07-23T12:09:54;3.47;;;3.08;;
9912;SDS011;41380;52.548;13.344;2022-07-23T12:12:22;4.63;;;3.13;;
9912;SDS011;41380;52.548;13.344;2022-07-23T12:14:52;6.60;;;3.40;;
9912;SDS011;41380;52.548;13.344;2022-07-23T12:17:22;4.97;;;3.13;;
9912;SDS011;41380;52.548;13.344;2022-07-23T12:19:56;4.40;;;3.33;;
9912;SDS011;41380;52.548;13.344;2022-07-23T12:22:24;5.05;;;3.53;;
9912;SDS011;41380;52.548;13.344;2022-07-23T12:25:00;4.55;;;3.40;;
9912;SDS011;41380;52.548;13.344;2022-07-23T12:27:29;4.65;;;2.97;;
9912;SDS011;41380;52.548;13.344;2022-07-23T12:29:58;4.05;;;2.90;;
9912;SDS011;41380;52.548;13.344;2022-07-23T12:32:26;4.07;;;3.30;;
9912;SDS011;41380;52.548;13.344;2022-07-23T12:35:05;5.80;;;3.40;;
9912;SDS011;41380;52.548;13.344;2022-07-23T12:37:36;3.75;;;3.00;;
9912;SDS011;41380;52.548;13.344;2022-07-23T12:40:20;4.97;;;3.28;;
9912;SDS011;41380;52.548;13.344;2022-07-23T12:42:50;3.53;;;3.13;;
9912;SDS011;41380;52.548;13.344;2022-07-23T12:45:20;7.07;;;4.10;;
9912;SDS011;41380;52.548;13.344;2022-07-23T12:47:51;6.00;;;3.30;;
9912;SDS011;41380;52.548;13.344;2022-07-23T12:50:32;4.25;;;3.40;;
9912;SDS011;41380;52.548;13.344;2022-07-23T12:53:07;6.15;;;3.40;;
9912;SDS011;41380;52.548;13.344;2022-07-23T12:55:35;3.50;;;3.20;;
9912;SDS011;41380;52.548;13.344;2022-07-23T12:58:10;5.45;;;3.72;;
9912;SDS011;41380;52.548;13.344;2022-07-23T13:00:59;3.72;;;3.40;;
9912;SDS011;41380;52.548;13.344;2022-07-23T13:03:32;4.57;;;3.38;;
9912;SDS011;41380;52.548;13.344;2022-07-23T13:06:03;3.88;;;3.20;;
9912;SDS011;41380;52.548;13.344;2022-07-23T13:08:32;3.38;;;3.08;;
9912;SDS011;41380;52.548;13.344;2022-07-23T13:11:01;4.22;;;3.35;;
9912;SDS011;41380;52.548;13.344;2022-07-23T13:13:30;4.05;;;3.10;;
9912;SDS011;41380;52.548;13.344;2022-07-23T13:15:59;5.40;;;3.15;;
9912;SDS011;41380;52.548;13.344;2022-07-23T13:18:27;4.47;;;3.28;;
9912;SDS011;41380;52.548;13.344;2022-07-23T13:20:55;5.60;;;3.47;;
9912;SDS011;41380;52.548;13.344;2022-07-23T13:23:22;3.20;;;2.90;;
9912;SDS011;41380;52.548;13.344;2022-07-23T13:25:49;5.00;;;3.28;;
9912;SDS011;41380;52.548;13.344;2022-07-23T13:28:17;3.72;;;2.80;;
9912;SDS011;41380;52.548;13.344;2022-07-23T13:30:45;5.20;;;2.92;;
9912;SDS011;41380;52.548;13.344;2022-07-23T13:33:16;5.80;;;3.53;;
9912;SDS011;41380;52.548;13.344;2022-07-23T13:35:44;4.75;;;2.92;;
9912;SDS011;41380;52.548;13.344;2022-07-23T13:38:11;3.95;;;3.22;;
9912;SDS011;41380;52.548;13.344;2022-07-23T13:40:39;3.35;;;3.05;;
9912;SDS011;41380;52.548;13.344;2022-07-23T13:43:08;4.68;;;2.90;;
9912;SDS011;41380;52.548;13.344;2022-07-23T13:45:36;4.90;;;2.83;;
9912;SDS011;41380;52.548;13.344;2022-07-23T13:48:04;4.07;;;3.00;;
9912;SDS011;41380;52.548;13.344;2022-07-23T13:50:33;4.03;;;2.72;;
9912;SDS011;41380;52.548;13.344;2022-07-23T13:53:01;5.82;;;2.90;;
9912;SDS011;41380;52.548;13.344;2022-07-23T13:55:29;3.33;;;2.72;;
9912;SDS011;41380;52.548;13.344;2022-07-23T13:57:56;3.38;;;3.00;;
9912;SDS011;41380;52.548;13.344;2022-07-23T14:00:23;4.07;;;2.80;;
9912;SDS011;41380;52.548;13.344;2022-07-23T14:02:51;3.10;;;2.60;;
9912;SDS011;41380;52.548;13.344;2022-07-23T14:05:19;3.55;;;2.67;;
9912;SDS011;41380;52.548;13.344;2022-07-23T14:07:47;3.10;;;2.80;;
9912;SDS011;41380;52.548;13.344;2022-07-23T14:10:17;3.00;;;2.63;;
9912;SDS011;41380;52.548;13.344;2022-07-23T14:12:44;3.72;;;2.80;;
9912;SDS011;41380;52.548;13.344;2022-07-23T14:15:13;4.10;;;2.67;;
9912;SDS011;41380;52.548;13.344;2022-07-23T14:17:40;3.05;;;2.75;;
9912;SDS011;41380;52.548;13.344;2022-07-23T14:20:09;2.65;;;2.45;;
9912;SDS011;41380;52.548;13.344;2022-07-23T14:22:37;3.45;;;2.47;;
9912;SDS011;41380;52.548;13.344;2022-07-23T14:25:06;3.13;;;2.30;;
9912;SDS011;41380;52.548;13.344;2022-07-23T14:27:35;3.47;;;2.67;;
9912;SDS011;41380;52.548;13.344;2022-07-23T14:30:03;3.40;;;2.30;;
9912;SDS011;41380;52.548;13.344;2022-07-23T14:32:32;5.60;;;3.08;;
9912;SDS011;41380;52.548;13.344;2022-07-23T14:34:59;2.60;;;2.40;;
9912;SDS011;41380;52.548;13.344;2022-07-23T14:37:26;4.32;;;2.40;;
9912;SDS011;41380;52.548;13.344;2022-07-23T14:39:53;3.25;;;2.67;;
9912;SDS011;41380;52.548;13.344;2022-07-23T14:42:21;4.82;;;2.40;;
9912;SDS011;41380;52.548;13.344;2022-07-23T14:44:48;5.03;;;2.50;;
9912;SDS011;41380;52.548;13.344;2022-07-23T14:47:15;2.72;;;2.30;;
9912;SDS011;41380;52.548;13.344;2022-07-23T14:49:42;3.38;;;2.42;;
9912;SDS011;41380;52.548;13.344;2022-07-23T14:52:09;3.00;;;2.45;;
9912;SDS011;41380;52.548;13.344;2022-07-23T14:54:36;3.00;;;2.50;;
9912;SDS011;41380;52.548;13.344;2022-07-23T14:57:03;2.97;;;2.30;;
9912;SDS011;41380;52.548;13.344;2022-07-23T14:59:34;2.65;;;2.35;;
9912;SDS011;41380;52.548;13.344;2022-07-23T15:02:01;3.60;;;2.50;;
9912;SDS011;41380;52.548;13.344;2022-07-23T15:04:28;3.45;;;2.60;;
9912;SDS011;41380;52.548;13.344;2022-07-23T15:06:55;3.38;;;2.10;;
9912;SDS011;41380;52.548;13.344;2022-07-23T15:09:22;2.53;;;2.25;;
9912;SDS011;41380;52.548;13.344;2022-07-23T15:11:49;4.15;;;2.53;;
9912;SDS011;41380;52.548;13.344;2022-07-23T15:14:16;2.80;;;2.28;;